Terminal Aerodrome Forecast
Issued by NWS

Home | Current Version | Previous Version | Text Only | Print | Product List | Glossary On
Versions: 1 2 3 4 5 6 7 8 9 10 11 12 13 14 15 16 17 18 19 20 21 22 23 24 25 26 27 28 29 30 31 32 33 34 35 36
000
FTUS44 KOUN 031130
TAFLAW
TAF
KLAW 031130Z 0312/0412 19012KT 4SM BR BKN007 OVC020
      TEMPO 0312/0315 2SM -DZ BR OVC007
     FM031600 21014G24KT P6SM BKN010 BKN100
     FM040200 01009KT P6SM OVC010
      TEMPO 0402/0406 4SM -RA BR
     FM040600 02016G26KT 4SM -FZRAPLSN BR OVC007
      TEMPO 0406/0409 2SM -RAPL BR=

USA.gov is the U.S. government's official web portal to all federal, state and local government web resources and services.